createdAt,value
2023-02-11T00:06:02.014Z,6.01
2023-02-11T00:27:47.758Z,2.54
2023-02-11T00:49:33.783Z,5.22
2023-02-11T01:11:22.296Z,3.81
2023-02-11T01:33:07.972Z,5.63
2023-02-11T01:55:18.331Z,4.71
2023-02-11T02:17:04.063Z,2.80
2023-02-11T02:38:55.638Z,4.63
2023-02-11T03:00:48.150Z,2.75
2023-02-11T03:22:38.651Z,4.11
2023-02-11T03:44:27.579Z,2.31
2023-02-11T04:06:13.341Z,5.39
2023-02-11T04:27:59.024Z,4.16
2023-02-11T04:49:45.079Z,2.46
2023-02-11T05:11:30.793Z,2.09
2023-02-11T05:33:17.192Z,5.15
2023-02-11T05:55:03.140Z,3.18
2023-02-11T06:16:48.772Z,3.40
2023-02-11T06:38:35.239Z,4.65
2023-02-11T07:11:43.867Z,4.10
2023-02-11T07:33:29.683Z,4.20
2023-02-11T07:55:13.813Z,5.21
2023-02-11T08:16:59.359Z,3.98
2023-02-11T08:44:40.872Z,4.65
2023-02-11T09:06:27.464Z,6.96
2023-02-11T09:28:13.242Z,5.91
2023-02-11T09:50:03.228Z,8.85
2023-02-11T10:11:57.105Z,8.89
2023-02-11T10:33:48.177Z,9.33
2023-02-11T10:55:34.046Z,9.52
2023-02-11T11:17:21.896Z,9.52
2023-02-11T11:39:22.011Z,10.09
2023-02-11T12:01:21.672Z,9.74
2023-02-11T12:23:25.991Z,9.13
2023-02-11T12:45:25.942Z,9.86
2023-02-11T13:07:18.090Z,9.84
2023-02-11T13:29:16.937Z,9.69
2023-02-11T13:51:06.167Z,9.55
2023-02-11T14:13:20.737Z,9.58
2023-02-11T14:35:15.147Z,9.91
2023-02-11T14:57:14.475Z,10.43
2023-02-11T15:19:05.521Z,10.72
2023-02-11T15:41:00.860Z,9.96
2023-02-11T16:02:50.909Z,9.30
2023-02-11T16:24:39.196Z,9.60
2023-02-11T16:46:25.034Z,9.27
2023-02-11T17:08:12.260Z,8.76
2023-02-11T17:29:58.198Z,8.71
2023-02-11T17:51:43.970Z,8.27
2023-02-11T18:13:29.971Z,8.08
2023-02-11T18:35:17.001Z,7.98
2023-02-11T18:57:02.721Z,8.00
2023-02-11T19:18:48.425Z,8.16
2023-02-11T19:40:34.266Z,8.32
2023-02-11T20:02:19.937Z,8.29
2023-02-11T20:24:05.970Z,8.21
2023-02-11T20:45:52.090Z,8.30
2023-02-11T21:07:39.174Z,8.55
2023-02-11T21:33:27.133Z,8.64
2023-02-11T21:55:13.127Z,9.87
2023-02-11T22:16:59.114Z,10.86
2023-02-11T22:38:44.818Z,10.34
2023-02-11T23:00:36.895Z,9.90
2023-02-11T23:22:22.576Z,9.28
2023-02-11T23:44:08.286Z,8.83
